sensor_id;sensor_type;location;lat;lon;timestamp;temperature;humidity
78455;SHT31;67751;51.986;5.696;2023-04-24T00:00:46;12.1;76.4
78455;SHT31;67751;51.986;5.696;2023-04-24T00:03:16;12.1;76.4
78455;SHT31;67751;51.986;5.696;2023-04-24T00:05:48;12.1;76.2
78455;SHT31;67751;51.986;5.696;2023-04-24T00:08:18;12.1;76.5
78455;SHT31;67751;51.986;5.696;2023-04-24T00:10:48;12.1;76.1
78455;SHT31;67751;51.986;5.696;2023-04-24T00:13:20;12.1;76.1
78455;SHT31;67751;51.986;5.696;2023-04-24T00:15:49;12.1;76.2
78455;SHT31;67751;51.986;5.696;2023-04-24T00:18:19;12.1;76.5
78455;SHT31;67751;51.986;5.696;2023-04-24T00:20:49;12.1;76.2
78455;SHT31;67751;51.986;5.696;2023-04-24T00:23:19;12.1;75.5
78455;SHT31;67751;51.986;5.696;2023-04-24T00:25:48;12.1;76.1
78455;SHT31;67751;51.986;5.696;2023-04-24T00:28:18;12.1;76.0
78455;SHT31;67751;51.986;5.696;2023-04-24T00:30:47;12.1;75.5
78455;SHT31;67751;51.986;5.696;2023-04-24T00:33:17;12.1;75.8
78455;SHT31;67751;51.986;5.696;2023-04-24T00:35:46;12.1;75.7
78455;SHT31;67751;51.986;5.696;2023-04-24T00:38:16;12.1;76.3
78455;SHT31;67751;51.986;5.696;2023-04-24T00:40:45;12.1;75.7
78455;SHT31;67751;51.986;5.696;2023-04-24T00:43:15;12.1;76.2
78455;SHT31;67751;51.986;5.696;2023-04-24T00:45:46;12.1;75.7
78455;SHT31;67751;51.986;5.696;2023-04-24T00:48:16;12.1;75.8
78455;SHT31;67751;51.986;5.696;2023-04-24T00:50:46;12.1;76.2
78455;SHT31;67751;51.986;5.696;2023-04-24T00:53:16;12.1;76.1
78455;SHT31;67751;51.986;5.696;2023-04-24T00:55:45;12.1;76.1
78455;SHT31;67751;51.986;5.696;2023-04-24T00:58:16;12.1;76.0
78455;SHT31;67751;51.986;5.696;2023-04-24T01:00:46;12.1;76.3
78455;SHT31;67751;51.986;5.696;2023-04-24T01:03:16;12.1;76.7
78455;SHT31;67751;51.986;5.696;2023-04-24T01:05:48;12.1;76.7
78455;SHT31;67751;51.986;5.696;2023-04-24T01:08:19;12.1;75.9
78455;SHT31;67751;51.986;5.696;2023-04-24T01:10:51;12.1;75.3
78455;SHT31;67751;51.986;5.696;2023-04-24T01:13:21;12.1;74.9
78455;SHT31;67751;51.986;5.696;2023-04-24T01:15:50;12.1;74.1
78455;SHT31;67751;51.986;5.696;2023-04-24T01:18:20;12.0;74.6
78455;SHT31;67751;51.986;5.696;2023-04-24T01:20:52;12.0;74.8
78455;SHT31;67751;51.986;5.696;2023-04-24T01:23:22;12.0;75.2
78455;SHT31;67751;51.986;5.696;2023-04-24T01:25:54;12.0;75.4
78455;SHT31;67751;51.986;5.696;2023-04-24T01:28:24;12.0;75.4
78455;SHT31;67751;51.986;5.696;2023-04-24T01:30:54;12.0;75.5
78455;SHT31;67751;51.986;5.696;2023-04-24T01:33:23;12.0;75.7
78455;SHT31;67751;51.986;5.696;2023-04-24T01:35:54;12.0;75.6
78455;SHT31;67751;51.986;5.696;2023-04-24T01:38:24;11.9;75.7
78455;SHT31;67751;51.986;5.696;2023-04-24T01:40:53;11.9;75.9
78455;SHT31;67751;51.986;5.696;2023-04-24T01:43:25;11.9;75.8
78455;SHT31;67751;51.986;5.696;2023-04-24T01:45:57;11.9;76.3
78455;SHT31;67751;51.986;5.696;2023-04-24T01:48:27;11.9;76.4
78455;SHT31;67751;51.986;5.696;2023-04-24T01:50:57;11.9;76.8
78455;SHT31;67751;51.986;5.696;2023-04-24T01:53:27;12.0;77.0
78455;SHT31;67751;51.986;5.696;2023-04-24T01:55:57;12.0;77.1
78455;SHT31;67751;51.986;5.696;2023-04-24T01:58:27;12.0;77.0
78455;SHT31;67751;51.986;5.696;2023-04-24T02:00:57;12.0;77.2
78455;SHT31;67751;51.986;5.696;2023-04-24T02:03:28;12.0;77.2
78455;SHT31;67751;51.986;5.696;2023-04-24T02:05:57;12.0;77.2
78455;SHT31;67751;51.986;5.696;2023-04-24T02:08:27;12.0;76.9
78455;SHT31;67751;51.986;5.696;2023-04-24T02:10:56;12.1;76.7
78455;SHT31;67751;51.986;5.696;2023-04-24T02:13:26;12.1;77.1
78455;SHT31;67751;51.986;5.696;2023-04-24T02:15:56;12.1;76.9
78455;SHT31;67751;51.986;5.696;2023-04-24T02:18:27;12.2;76.5
78455;SHT31;67751;51.986;5.696;2023-04-24T02:20:56;12.2;76.3
78455;SHT31;67751;51.986;5.696;2023-04-24T02:23:26;12.2;76.3
78455;SHT31;67751;51.986;5.696;2023-04-24T02:25:56;12.2;76.1
78455;SHT31;67751;51.986;5.696;2023-04-24T02:28:25;12.2;76.3
78455;SHT31;67751;51.986;5.696;2023-04-24T02:30:55;12.2;76.3
78455;SHT31;67751;51.986;5.696;2023-04-24T02:33:25;12.2;76.1
78455;SHT31;67751;51.986;5.696;2023-04-24T02:35:55;12.2;76.4
78455;SHT31;67751;51.986;5.696;2023-04-24T02:38:25;12.2;76.7
78455;SHT31;67751;51.986;5.696;2023-04-24T02:40:54;12.3;76.6
78455;SHT31;67751;51.986;5.696;2023-04-24T02:43:24;12.3;76.5
78455;SHT31;67751;51.986;5.696;2023-04-24T02:45:54;12.2;76.2
78455;SHT31;67751;51.986;5.696;2023-04-24T02:48:23;12.2;76.0
78455;SHT31;67751;51.986;5.696;2023-04-24T02:50:53;12.2;76.0
78455;SHT31;67751;51.986;5.696;2023-04-24T02:53:23;12.1;76.2
78455;SHT31;67751;51.986;5.696;2023-04-24T02:55:52;12.1;76.6
78455;SHT31;67751;51.986;5.696;2023-04-24T02:58:22;12.1;76.0
78455;SHT31;67751;51.986;5.696;2023-04-24T03:00:55;12.1;76.2
78455;SHT31;67751;51.986;5.696;2023-04-24T03:03:26;12.1;76.0
78455;SHT31;67751;51.986;5.696;2023-04-24T03:05:56;12.0;76.5
78455;SHT31;67751;51.986;5.696;2023-04-24T03:08:26;12.0;76.5
78455;SHT31;67751;51.986;5.696;2023-04-24T03:10:56;12.0;76.6
78455;SHT31;67751;51.986;5.696;2023-04-24T03:13:25;12.0;76.5
78455;SHT31;67751;51.986;5.696;2023-04-24T03:15:55;12.1;76.3
78455;SHT31;67751;51.986;5.696;2023-04-24T03:18:25;12.1;76.6
78455;SHT31;67751;51.986;5.696;2023-04-24T03:20:54;12.1;76.6
78455;SHT31;67751;51.986;5.696;2023-04-24T03:23:24;12.1;76.8
78455;SHT31;67751;51.986;5.696;2023-04-24T03:25:53;12.1;76.5
78455;SHT31;67751;51.986;5.696;2023-04-24T03:28:24;12.1;76.6
78455;SHT31;67751;51.986;5.696;2023-04-24T03:30:53;12.1;76.6
78455;SHT31;67751;51.986;5.696;2023-04-24T03:33:23;12.1;76.6
78455;SHT31;67751;51.986;5.696;2023-04-24T03:35:52;12.1;76.1
78455;SHT31;67751;51.986;5.696;2023-04-24T03:38:22;12.1;76.0
78455;SHT31;67751;51.986;5.696;2023-04-24T03:40:51;12.0;76.1
78455;SHT31;67751;51.986;5.696;2023-04-24T03:43:21;12.0;75.8
78455;SHT31;67751;51.986;5.696;2023-04-24T03:45:51;12.0;76.1
78455;SHT31;67751;51.986;5.696;2023-04-24T03:48:20;12.0;76.6
78455;SHT31;67751;51.986;5.696;2023-04-24T03:50:50;12.0;76.9
78455;SHT31;67751;51.986;5.696;2023-04-24T03:53:19;11.9;76.6
78455;SHT31;67751;51.986;5.696;2023-04-24T03:55:49;11.9;76.8
78455;SHT31;67751;51.986;5.696;2023-04-24T03:58:19;11.9;76.6
78455;SHT31;67751;51.986;5.696;2023-04-24T04:00:49;11.9;76.5
78455;SHT31;67751;51.986;5.696;2023-04-24T04:03:19;11.9;76.5
78455;SHT31;67751;51.986;5.696;2023-04-24T04:05:49;11.9;76.6
78455;SHT31;67751;51.986;5.696;2023-04-24T04:08:18;11.9;76.1
78455;SHT31;67751;51.986;5.696;2023-04-24T04:10:48;11.9;75.8
78455;SHT31;67751;51.986;5.696;2023-04-24T04:13:17;11.9;75.9
78455;SHT31;67751;51.986;5.696;2023-04-24T04:15:47;11.9;76.0
78455;SHT31;67751;51.986;5.696;2023-04-24T04:18:17;11.9;76.2
78455;SHT31;67751;51.986;5.696;2023-04-24T04:20:48;11.9;75.9
78455;SHT31;67751;51.986;5.696;2023-04-24T04:23:18;11.9;75.8
78455;SHT31;67751;51.986;5.696;2023-04-24T04:25:47;11.9;75.7
78455;SHT31;67751;51.986;5.696;2023-04-24T04:28:19;11.9;75.7
78455;SHT31;67751;51.986;5.696;2023-04-24T04:30:48;11.9;75.6
78455;SHT31;67751;51.986;5.696;2023-04-24T04:33:21;11.9;75.2
78455;SHT31;67751;51.986;5.696;2023-04-24T04:35:51;11.9;75.3
78455;SHT31;67751;51.986;5.696;2023-04-24T04:38:25;11.9;75.6
78455;SHT31;67751;51.986;5.696;2023-04-24T04:40:57;11.8;75.2
78455;SHT31;67751;51.986;5.696;2023-04-24T04:43:27;11.8;75.2
78455;SHT31;67751;51.986;5.696;2023-04-24T04:45:58;11.8;75.1
78455;SHT31;67751;51.986;5.696;2023-04-24T04:48:28;11.8;76.0
78455;SHT31;67751;51.986;5.696;2023-04-24T04:50:58;11.7;75.9
78455;SHT31;67751;51.986;5.696;2023-04-24T04:53:28;11.7;75.9
78455;SHT31;67751;51.986;5.696;2023-04-24T04:55:58;11.7;75.9
78455;SHT31;67751;51.986;5.696;2023-04-24T04:58:28;11.6;76.3
78455;SHT31;67751;51.986;5.696;2023-04-24T05:00:58;11.6;76.3
78455;SHT31;67751;51.986;5.696;2023-04-24T05:03:27;11.6;76.4
78455;SHT31;67751;51.986;5.696;2023-04-24T05:05:57;11.6;76.8
78455;SHT31;67751;51.986;5.696;2023-04-24T05:08:27;11.6;76.8
78455;SHT31;67751;51.986;5.696;2023-04-24T05:10:57;11.6;77.1
78455;SHT31;67751;51.986;5.696;2023-04-24T05:13:27;11.7;76.8
78455;SHT31;67751;51.986;5.696;2023-04-24T05:15:57;11.7;76.3
78455;SHT31;67751;51.986;5.696;2023-04-24T05:18:27;11.7;76.1
78455;SHT31;67751;51.986;5.696;2023-04-24T05:20:57;11.7;75.7
78455;SHT31;67751;51.986;5.696;2023-04-24T05:23:27;11.8;75.9
78455;SHT31;67751;51.986;5.696;2023-04-24T05:25:57;11.8;75.4
78455;SHT31;67751;51.986;5.696;2023-04-24T05:28:26;11.8;75.2
78455;SHT31;67751;51.986;5.696;2023-04-24T05:30:56;11.8;75.1
78455;SHT31;67751;51.986;5.696;2023-04-24T05:33:26;11.9;75.4
78455;SHT31;67751;51.986;5.696;2023-04-24T05:35:56;11.9;75.1
78455;SHT31;67751;51.986;5.696;2023-04-24T05:38:25;11.9;75.2
78455;SHT31;67751;51.986;5.696;2023-04-24T05:40:55;11.9;75.3
78455;SHT31;67751;51.986;5.696;2023-04-24T05:43:27;11.9;75.2
78455;SHT31;67751;51.986;5.696;2023-04-24T05:45:56;11.9;75.0
78455;SHT31;67751;51.986;5.696;2023-04-24T05:48:26;12.0;74.9
78455;SHT31;67751;51.986;5.696;2023-04-24T05:50:56;12.0;75.1
78455;SHT31;67751;51.986;5.696;2023-04-24T05:53:26;12.0;75.4
78455;SHT31;67751;51.986;5.696;2023-04-24T05:55:56;12.0;75.3
78455;SHT31;67751;51.986;5.696;2023-04-24T05:58:25;12.0;75.6
78455;SHT31;67751;51.986;5.696;2023-04-24T06:00:55;12.0;75.3
78455;SHT31;67751;51.986;5.696;2023-04-24T06:03:25;12.1;75.8
78455;SHT31;67751;51.986;5.696;2023-04-24T06:05:56;12.1;75.5
78455;SHT31;67751;51.986;5.696;2023-04-24T06:08:25;12.1;75.4
78455;SHT31;67751;51.986;5.696;2023-04-24T06:10:55;12.1;75.5
78455;SHT31;67751;51.986;5.696;2023-04-24T06:13:24;12.2;75.5
78455;SHT31;67751;51.986;5.696;2023-04-24T06:15:54;12.2;75.6
78455;SHT31;67751;51.986;5.696;2023-04-24T06:18:24;12.2;75.3
78455;SHT31;67751;51.986;5.696;2023-04-24T06:20:53;12.2;75.4
78455;SHT31;67751;51.986;5.696;2023-04-24T06:23:23;12.2;75.4
78455;SHT31;67751;51.986;5.696;2023-04-24T06:25:52;12.3;74.9
78455;SHT31;67751;51.986;5.696;2023-04-24T06:28:22;12.3;75.3
78455;SHT31;67751;51.986;5.696;2023-04-24T06:30:52;12.3;75.4
78455;SHT31;67751;51.986;5.696;2023-04-24T06:33:21;12.3;75.7
78455;SHT31;67751;51.986;5.696;2023-04-24T06:35:52;12.3;75.2
78455;SHT31;67751;51.986;5.696;2023-04-24T06:38:22;12.3;75.2
78455;SHT31;67751;51.986;5.696;2023-04-24T06:40:51;12.3;75.3
78455;SHT31;67751;51.986;5.696;2023-04-24T06:43:23;12.3;75.6
78455;SHT31;67751;51.986;5.696;2023-04-24T06:45:53;12.3;75.4
78455;SHT31;67751;51.986;5.696;2023-04-24T06:48:23;12.2;75.6
78455;SHT31;67751;51.986;5.696;2023-04-24T06:50:53;12.2;75.2
78455;SHT31;67751;51.986;5.696;2023-04-24T06:53:23;12.2;75.5
78455;SHT31;67751;51.986;5.696;2023-04-24T06:55:53;12.2;75.2
78455;SHT31;67751;51.986;5.696;2023-04-24T06:58:22;12.2;75.5
78455;SHT31;67751;51.986;5.696;2023-04-24T07:00:52;12.2;75.6
78455;SHT31;67751;51.986;5.696;2023-04-24T07:03:21;12.2;75.5
78455;SHT31;67751;51.986;5.696;2023-04-24T07:05:53;12.2;75.1
78455;SHT31;67751;51.986;5.696;2023-04-24T07:08:25;12.2;74.1
78455;SHT31;67751;51.986;5.696;2023-04-24T07:10:55;12.2;74.3
78455;SHT31;67751;51.986;5.696;2023-04-24T07:13:26;12.1;74.2
78455;SHT31;67751;51.986;5.696;2023-04-24T07:15:57;12.1;74.8
78455;SHT31;67751;51.986;5.696;2023-04-24T07:18:27;12.1;74.5
78455;SHT31;67751;51.986;5.696;2023-04-24T07:20:57;12.0;74.3
78455;SHT31;67751;51.986;5.696;2023-04-24T07:23:30;11.9;74.6
78455;SHT31;67751;51.986;5.696;2023-04-24T07:26:00;11.9;74.5
78455;SHT31;67751;51.986;5.696;2023-04-24T07:28:30;11.8;75.2
78455;SHT31;67751;51.986;5.696;2023-04-24T07:31:02;11.8;75.0
78455;SHT31;67751;51.986;5.696;2023-04-24T07:33:33;11.8;75.4
78455;SHT31;67751;51.986;5.696;2023-04-24T07:36:04;11.7;75.1
78455;SHT31;67751;51.986;5.696;2023-04-24T07:38:35;11.7;75.7
78455;SHT31;67751;51.986;5.696;2023-04-24T07:41:05;11.7;74.6
78455;SHT31;67751;51.986;5.696;2023-04-24T07:43:35;11.6;75.0
78455;SHT31;67751;51.986;5.696;2023-04-24T07:46:04;11.6;74.2
78455;SHT31;67751;51.986;5.696;2023-04-24T07:48:35;11.5;74.6
78455;SHT31;67751;51.986;5.696;2023-04-24T07:51:06;11.4;74.1
78455;SHT31;67751;51.986;5.696;2023-04-24T07:53:37;11.4;76.1
78455;SHT31;67751;51.986;5.696;2023-04-24T07:56:07;11.3;75.4
78455;SHT31;67751;51.986;5.696;2023-04-24T07:58:36;11.3;74.5
78455;SHT31;67751;51.986;5.696;2023-04-24T08:01:06;11.3;75.5
78455;SHT31;67751;51.986;5.696;2023-04-24T08:03:36;11.2;76.4
78455;SHT31;67751;51.986;5.696;2023-04-24T08:06:06;11.2;76.9
78455;SHT31;67751;51.986;5.696;2023-04-24T08:08:36;11.2;75.5
78455;SHT31;67751;51.986;5.696;2023-04-24T08:11:05;11.2;76.3
78455;SHT31;67751;51.986;5.696;2023-04-24T08:13:35;11.2;76.4
78455;SHT31;67751;51.986;5.696;2023-04-24T08:16:05;11.2;75.5
78455;SHT31;67751;51.986;5.696;2023-04-24T08:18:35;11.2;75.7
78455;SHT31;67751;51.986;5.696;2023-04-24T08:21:05;11.2;75.5
78455;SHT31;67751;51.986;5.696;2023-04-24T08:23:35;11.2;76.5
78455;SHT31;67751;51.986;5.696;2023-04-24T08:26:04;11.2;75.9
78455;SHT31;67751;51.986;5.696;2023-04-24T08:28:34;11.2;76.9
78455;SHT31;67751;51.986;5.696;2023-04-24T08:31:04;11.2;76.9
78455;SHT31;67751;51.986;5.696;2023-04-24T08:33:34;11.2;77.1
78455;SHT31;67751;51.986;5.696;2023-04-24T08:36:05;11.3;76.7
78455;SHT31;67751;51.986;5.696;2023-04-24T08:38:35;11.3;76.5
78455;SHT31;67751;51.986;5.696;2023-04-24T08:41:07;11.3;76.1
78455;SHT31;67751;51.986;5.696;2023-04-24T08:43:38;11.3;76.2
78455;SHT31;67751;51.986;5.696;2023-04-24T08:46:08;11.3;76.1
78455;SHT31;67751;51.986;5.696;2023-04-24T08:48:39;11.3;75.2
78455;SHT31;67751;51.986;5.696;2023-04-24T08:51:09;11.2;73.9
78455;SHT31;67751;51.986;5.696;2023-04-24T08:53:39;11.2;74.0
78455;SHT31;67751;51.986;5.696;2023-04-24T08:56:11;11.1;74.3
78455;SHT31;67751;51.986;5.696;2023-04-24T08:58:41;11.1;74.4
78455;SHT31;67751;51.986;5.696;2023-04-24T09:01:12;11.0;75.2
78455;SHT31;67751;51.986;5.696;2023-04-24T09:03:42;11.0;75.7
78455;SHT31;67751;51.986;5.696;2023-04-24T09:06:14;10.9;76.9
78455;SHT31;67751;51.986;5.696;2023-04-24T09:08:45;10.9;77.6
78455;SHT31;67751;51.986;5.696;2023-04-24T09:11:17;10.9;76.8
78455;SHT31;67751;51.986;5.696;2023-04-24T09:13:48;10.9;76.6
78455;SHT31;67751;51.986;5.696;2023-04-24T09:16:18;10.9;75.2
78455;SHT31;67751;51.986;5.696;2023-04-24T09:18:50;10.9;75.8
78455;SHT31;67751;51.986;5.696;2023-04-24T09:21:22;10.9;74.6
78455;SHT31;67751;51.986;5.696;2023-04-24T09:24:04;10.9;74.1
78455;SHT31;67751;51.986;5.696;2023-04-24T09:26:36;10.8;73.8
78455;SHT31;67751;51.986;5.696;2023-04-24T09:29:05;10.8;75.8
78455;SHT31;67751;51.986;5.696;2023-04-24T09:31:35;10.8;75.3
78455;SHT31;67751;51.986;5.696;2023-04-24T09:34:05;10.8;75.4
78455;SHT31;67751;51.986;5.696;2023-04-24T09:36:36;10.8;75.3
78455;SHT31;67751;51.986;5.696;2023-04-24T09:39:08;10.8;75.8
78455;SHT31;67751;51.986;5.696;2023-04-24T09:41:46;10.8;76.2
78455;SHT31;67751;51.986;5.696;2023-04-24T09:44:18;10.8;75.5
78455;SHT31;67751;51.986;5.696;2023-04-24T09:46:53;10.8;74.8
78455;SHT31;67751;51.986;5.696;2023-04-24T09:49:25;10.8;74.5
78455;SHT31;67751;51.986;5.696;2023-04-24T09:52:04;10.8;74.5
78455;SHT31;67751;51.986;5.696;2023-04-24T09:54:35;10.8;74.2
78455;SHT31;67751;51.986;5.696;2023-04-24T09:57:07;10.8;75.7
78455;SHT31;67751;51.986;5.696;2023-04-24T09:59:42;10.8;76.2
78455;SHT31;67751;51.986;5.696;2023-04-24T10:02:19;10.8;75.8
78455;SHT31;67751;51.986;5.696;2023-04-24T10:04:56;10.9;75.3
78455;SHT31;67751;51.986;5.696;2023-04-24T10:07:27;10.9;76.7
78455;SHT31;67751;51.986;5.696;2023-04-24T10:09:57;10.9;77.8
78455;SHT31;67751;51.986;5.696;2023-04-24T10:12:28;11.0;76.5
78455;SHT31;67751;51.986;5.696;2023-04-24T10:15:01;11.0;76.7
78455;SHT31;67751;51.986;5.696;2023-04-24T10:17:34;11.1;77.4
78455;SHT31;67751;51.986;5.696;2023-04-24T10:20:05;11.1;76.9
78455;SHT31;67751;51.986;5.696;2023-04-24T10:22:36;11.2;77.5
78455;SHT31;67751;51.986;5.696;2023-04-24T10:25:07;11.2;76.1
78455;SHT31;67751;51.986;5.696;2023-04-24T10:27:39;11.2;76.7
78455;SHT31;67751;51.986;5.696;2023-04-24T10:30:14;11.3;76.4
78455;SHT31;67751;51.986;5.696;2023-04-24T10:32:44;11.3;73.7
78455;SHT31;67751;51.986;5.696;2023-04-24T10:35:15;11.3;73.0
78455;SHT31;67751;51.986;5.696;2023-04-24T10:37:53;11.3;74.9
78455;SHT31;67751;51.986;5.696;2023-04-24T10:40:27;11.4;75.0
78455;SHT31;67751;51.986;5.696;2023-04-24T10:42:59;11.4;71.9
78455;SHT31;67751;51.986;5.696;2023-04-24T10:45:33;11.4;68.8
78455;SHT31;67751;51.986;5.696;2023-04-24T10:48:05;11.4;71.5
78455;SHT31;67751;51.986;5.696;2023-04-24T10:50:46;11.4;71.8
78455;SHT31;67751;51.986;5.696;2023-04-24T10:53:18;11.4;70.5
78455;SHT31;67751;51.986;5.696;2023-04-24T10:55:52;11.4;69.2
78455;SHT31;67751;51.986;5.696;2023-04-24T10:58:40;11.3;70.8
78455;SHT31;67751;51.986;5.696;2023-04-24T11:01:23;11.3;68.0
78455;SHT31;67751;51.986;5.696;2023-04-24T11:03:57;11.3;69.3
78455;SHT31;67751;51.986;5.696;2023-04-24T11:06:31;11.3;70.2
78455;SHT31;67751;51.986;5.696;2023-04-24T11:09:07;11.3;71.6
78455;SHT31;67751;51.986;5.696;2023-04-24T11:11:46;11.3;71.6
78455;SHT31;67751;51.986;5.696;2023-04-24T11:14:16;11.3;71.5
78455;SHT31;67751;51.986;5.696;2023-04-24T11:16:53;11.3;73.3
78455;SHT31;67751;51.986;5.696;2023-04-24T11:19:25;11.3;73.0
78455;SHT31;67751;51.986;5.696;2023-04-24T11:21:59;11.3;71.5
78455;SHT31;67751;51.986;5.696;2023-04-24T11:24:48;11.3;70.5
78455;SHT31;67751;51.986;5.696;2023-04-24T11:27:16;11.4;72.3
78455;SHT31;67751;51.986;5.696;2023-04-24T11:29:48;11.4;71.5
78455;SHT31;67751;51.986;5.696;2023-04-24T11:32:26;11.4;71.9
78455;SHT31;67751;51.986;5.696;2023-04-24T11:34:57;11.4;68.8
78455;SHT31;67751;51.986;5.696;2023-04-24T11:37:33;11.4;71.9
78455;SHT31;67751;51.986;5.696;2023-04-24T11:40:04;11.5;69.2
78455;SHT31;67751;51.986;5.696;2023-04-24T11:42:39;11.5;71.2
78455;SHT31;67751;51.986;5.696;2023-04-24T11:45:10;11.5;71.2
78455;SHT31;67751;51.986;5.696;2023-04-24T11:47:41;11.5;70.4
78455;SHT31;67751;51.986;5.696;2023-04-24T11:50:13;11.6;68.2
78455;SHT31;67751;51.986;5.696;2023-04-24T11:52:45;11.6;68.6
78455;SHT31;67751;51.986;5.696;2023-04-24T11:55:25;11.6;68.3
78455;SHT31;67751;51.986;5.696;2023-04-24T11:57:56;11.6;69.5
78455;SHT31;67751;51.986;5.696;2023-04-24T12:00:28;11.5;70.5
78455;SHT31;67751;51.986;5.696;2023-04-24T12:03:08;11.5;69.8
78455;SHT31;67751;51.986;5.696;2023-04-24T12:05:39;11.5;68.7
78455;SHT31;67751;51.986;5.696;2023-04-24T12:08:08;11.4;70.6
78455;SHT31;67751;51.986;5.696;2023-04-24T12:10:38;11.4;69.1
78455;SHT31;67751;51.986;5.696;2023-04-24T12:13:09;11.3;69.9
78455;SHT31;67751;51.986;5.696;2023-04-24T12:15:40;11.3;70.0
78455;SHT31;67751;51.986;5.696;2023-04-24T12:18:12;11.2;69.6
78455;SHT31;67751;51.986;5.696;2023-04-24T12:20:44;11.2;70.5
78455;SHT31;67751;51.986;5.696;2023-04-24T12:23:13;11.2;71.9
78455;SHT31;67751;51.986;5.696;2023-04-24T12:25:43;11.2;71.4
78455;SHT31;67751;51.986;5.696;2023-04-24T12:28:13;11.2;67.9
78455;SHT31;67751;51.986;5.696;2023-04-24T12:30:46;11.2;69.8
78455;SHT31;67751;51.986;5.696;2023-04-24T12:33:19;11.3;71.0
78455;SHT31;67751;51.986;5.696;2023-04-24T12:35:52;11.3;70.7
78455;SHT31;67751;51.986;5.696;2023-04-24T12:38:25;11.3;70.5
78455;SHT31;67751;51.986;5.696;2023-04-24T12:41:07;11.3;71.7
78455;SHT31;67751;51.986;5.696;2023-04-24T12:43:37;11.4;70.1
78455;SHT31;67751;51.986;5.696;2023-04-24T12:46:07;11.4;71.1
78455;SHT31;67751;51.986;5.696;2023-04-24T12:48:36;11.4;70.1
78455;SHT31;67751;51.986;5.696;2023-04-24T12:51:06;11.4;70.4
78455;SHT31;67751;51.986;5.696;2023-04-24T12:53:36;11.4;68.7
78455;SHT31;67751;51.986;5.696;2023-04-24T12:56:05;11.5;71.3
78455;SHT31;67751;51.986;5.696;2023-04-24T12:58:35;11.5;70.6
78455;SHT31;67751;51.986;5.696;2023-04-24T13:01:04;11.5;71.4
78455;SHT31;67751;51.986;5.696;2023-04-24T13:03:34;11.5;69.8
78455;SHT31;67751;51.986;5.696;2023-04-24T13:06:05;11.5;70.7
78455;SHT31;67751;51.986;5.696;2023-04-24T13:08:34;11.6;67.8
78455;SHT31;67751;51.986;5.696;2023-04-24T13:11:04;11.6;67.2
78455;SHT31;67751;51.986;5.696;2023-04-24T13:13:33;11.6;68.2
78455;SHT31;67751;51.986;5.696;2023-04-24T13:16:03;11.6;68.3
78455;SHT31;67751;51.986;5.696;2023-04-24T13:18:33;11.6;67.4
78455;SHT31;67751;51.986;5.696;2023-04-24T13:21:02;11.6;64.4
78455;SHT31;67751;51.986;5.696;2023-04-24T13:23:32;11.6;63.8
78455;SHT31;67751;51.986;5.696;2023-04-24T13:26:01;11.6;66.9
78455;SHT31;67751;51.986;5.696;2023-04-24T13:28:31;11.6;67.7
78455;SHT31;67751;51.986;5.696;2023-04-24T13:31:01;11.6;68.0
78455;SHT31;67751;51.986;5.696;2023-04-24T13:33:30;11.7;68.3
78455;SHT31;67751;51.986;5.696;2023-04-24T13:36:00;11.7;66.0
78455;SHT31;67751;51.986;5.696;2023-04-24T13:38:30;11.7;66.2
78455;SHT31;67751;51.986;5.696;2023-04-24T13:41:00;11.7;64.4
78455;SHT31;67751;51.986;5.696;2023-04-24T13:43:30;11.7;64.7
78455;SHT31;67751;51.986;5.696;2023-04-24T13:45:59;11.8;67.6
78455;SHT31;67751;51.986;5.696;2023-04-24T13:48:30;11.8;67.4
78455;SHT31;67751;51.986;5.696;2023-04-24T13:51:00;11.8;67.5
78455;SHT31;67751;51.986;5.696;2023-04-24T13:53:29;11.9;59.8
78455;SHT31;67751;51.986;5.696;2023-04-24T13:55:59;11.9;58.9
78455;SHT31;67751;51.986;5.696;2023-04-24T13:58:29;11.9;61.2
78455;SHT31;67751;51.986;5.696;2023-04-24T14:00:59;11.9;59.5
78455;SHT31;67751;51.986;5.696;2023-04-24T14:03:29;11.9;59.5
78455;SHT31;67751;51.986;5.696;2023-04-24T14:05:59;12.0;61.3
78455;SHT31;67751;51.986;5.696;2023-04-24T14:08:28;12.0;59.7
78455;SHT31;67751;51.986;5.696;2023-04-24T14:10:58;12.0;59.7
78455;SHT31;67751;51.986;5.696;2023-04-24T14:13:28;12.0;60.6
78455;SHT31;67751;51.986;5.696;2023-04-24T14:15:57;12.0;58.1
78455;SHT31;67751;51.986;5.696;2023-04-24T14:18:27;12.0;60.4
78455;SHT31;67751;51.986;5.696;2023-04-24T14:20:59;12.1;60.8
78455;SHT31;67751;51.986;5.696;2023-04-24T14:23:29;12.1;56.5
78455;SHT31;67751;51.986;5.696;2023-04-24T14:25:59;12.2;61.7
78455;SHT31;67751;51.986;5.696;2023-04-24T14:28:28;12.2;59.5
78455;SHT31;67751;51.986;5.696;2023-04-24T14:31:00;12.2;57.9
78455;SHT31;67751;51.986;5.696;2023-04-24T14:33:29;12.2;57.7
78455;SHT31;67751;51.986;5.696;2023-04-24T14:35:59;12.3;58.7
78455;SHT31;67751;51.986;5.696;2023-04-24T14:38:30;12.3;56.2
78455;SHT31;67751;51.986;5.696;2023-04-24T14:40:59;12.3;55.3
78455;SHT31;67751;51.986;5.696;2023-04-24T14:43:29;12.3;59.1
78455;SHT31;67751;51.986;5.696;2023-04-24T14:46:00;12.3;57.7
78455;SHT31;67751;51.986;5.696;2023-04-24T14:48:30;12.4;60.4
78455;SHT31;67751;51.986;5.696;2023-04-24T14:50:59;12.4;61.1
78455;SHT31;67751;51.986;5.696;2023-04-24T14:53:29;12.5;57.0
78455;SHT31;67751;51.986;5.696;2023-04-24T14:55:59;12.5;53.8
78455;SHT31;67751;51.986;5.696;2023-04-24T14:58:28;12.5;53.6
78455;SHT31;67751;51.986;5.696;2023-04-24T15:00:58;12.5;55.1
78455;SHT31;67751;51.986;5.696;2023-04-24T15:03:28;12.5;55.2
78455;SHT31;67751;51.986;5.696;2023-04-24T15:05:58;12.4;52.7
78455;SHT31;67751;51.986;5.696;2023-04-24T15:08:28;12.4;53.4
78455;SHT31;67751;51.986;5.696;2023-04-24T15:10:58;12.4;55.9
78455;SHT31;67751;51.986;5.696;2023-04-24T15:13:27;12.3;58.0
78455;SHT31;67751;51.986;5.696;2023-04-24T15:15:57;12.3;57.9
78455;SHT31;67751;51.986;5.696;2023-04-24T15:18:27;12.3;57.9
78455;SHT31;67751;51.986;5.696;2023-04-24T15:20:57;12.3;54.7
78455;SHT31;67751;51.986;5.696;2023-04-24T15:23:26;12.2;55.0
78455;SHT31;67751;51.986;5.696;2023-04-24T15:25:56;12.2;55.9
78455;SHT31;67751;51.986;5.696;2023-04-24T15:28:26;12.2;57.7
78455;SHT31;67751;51.986;5.696;2023-04-24T15:30:55;12.2;56.6
78455;SHT31;67751;51.986;5.696;2023-04-24T15:33:25;12.2;57.7
78455;SHT31;67751;51.986;5.696;2023-04-24T15:35:55;12.1;58.5
78455;SHT31;67751;51.986;5.696;2023-04-24T15:38:24;12.1;57.6
78455;SHT31;67751;51.986;5.696;2023-04-24T15:40:54;12.1;60.2
78455;SHT31;67751;51.986;5.696;2023-04-24T15:43:24;12.2;61.7
78455;SHT31;67751;51.986;5.696;2023-04-24T15:45:53;12.2;59.3
78455;SHT31;67751;51.986;5.696;2023-04-24T15:48:23;12.2;59.3
78455;SHT31;67751;51.986;5.696;2023-04-24T15:50:52;12.2;60.2
78455;SHT31;67751;51.986;5.696;2023-04-24T15:53:22;12.2;57.9
78455;SHT31;67751;51.986;5.696;2023-04-24T15:55:52;12.2;60.1
78455;SHT31;67751;51.986;5.696;2023-04-24T15:58:23;12.2;57.3
78455;SHT31;67751;51.986;5.696;2023-04-24T16:00:53;12.2;60.0
78455;SHT31;67751;51.986;5.696;2023-04-24T16:03:23;12.2;59.4
78455;SHT31;67751;51.986;5.696;2023-04-24T16:05:52;12.3;59.7
78455;SHT31;67751;51.986;5.696;2023-04-24T16:08:22;12.3;61.0
78455;SHT31;67751;51.986;5.696;2023-04-24T16:10:51;12.3;60.8
78455;SHT31;67751;51.986;5.696;2023-04-24T16:13:21;12.3;60.4
78455;SHT31;67751;51.986;5.696;2023-04-24T16:15:51;12.3;60.1
78455;SHT31;67751;51.986;5.696;2023-04-24T16:18:20;12.3;59.0
78455;SHT31;67751;51.986;5.696;2023-04-24T16:20:50;12.3;57.7
78455;SHT31;67751;51.986;5.696;2023-04-24T16:23:19;12.3;58.9